sensor_id;sensor_type;location;lat;lon;timestamp;P1;durP1;ratioP1;P2;durP2;ratioP2
67904;SDS011;54709;43.614;1.576;2023-11-21T00:01:24;13.27;;;2.28;;
67904;SDS011;54709;43.614;1.576;2023-11-21T00:03:50;12.48;;;2.35;;
67904;SDS011;54709;43.614;1.576;2023-11-21T00:06:15;11.27;;;2.75;;
67904;SDS011;54709;43.614;1.576;2023-11-21T00:08:41;23.63;;;3.03;;
67904;SDS011;54709;43.614;1.576;2023-11-21T00:11:06;14.43;;;3.28;;
67904;SDS011;54709;43.614;1.576;2023-11-21T00:13:32;11.75;;;3.38;;
67904;SDS011;54709;43.614;1.576;2023-11-21T00:15:58;15.32;;;2.92;;
67904;SDS011;54709;43.614;1.576;2023-11-21T00:18:23;11.68;;;3.08;;
67904;SDS011;54709;43.614;1.576;2023-11-21T00:20:48;15.32;;;3.25;;
67904;SDS011;54709;43.614;1.576;2023-11-21T00:23:14;20.33;;;3.70;;
67904;SDS011;54709;43.614;1.576;2023-11-21T00:25:39;9.80;;;2.75;;
67904;SDS011;54709;43.614;1.576;2023-11-21T00:28:05;11.80;;;3.45;;
67904;SDS011;54709;43.614;1.576;2023-11-21T00:30:30;13.40;;;3.13;;
67904;SDS011;54709;43.614;1.576;2023-11-21T00:32:56;14.38;;;3.47;;
67904;SDS011;54709;43.614;1.576;2023-11-21T00:35:22;11.38;;;2.70;;
67904;SDS011;54709;43.614;1.576;2023-11-21T00:37:47;12.80;;;3.63;;
67904;SDS011;54709;43.614;1.576;2023-11-21T00:40:14;14.32;;;3.10;;
67904;SDS011;54709;43.614;1.576;2023-11-21T00:42:40;11.93;;;2.63;;
67904;SDS011;54709;43.614;1.576;2023-11-21T00:45:06;12.57;;;3.08;;
67904;SDS011;54709;43.614;1.576;2023-11-21T00:47:32;15.02;;;3.10;;
67904;SDS011;54709;43.614;1.576;2023-11-21T00:49:57;14.63;;;3.03;;
67904;SDS011;54709;43.614;1.576;2023-11-21T00:52:23;11.02;;;3.55;;
67904;SDS011;54709;43.614;1.576;2023-11-21T00:54:48;15.48;;;3.10;;
67904;SDS011;54709;43.614;1.576;2023-11-21T00:57:14;13.82;;;2.70;;
67904;SDS011;54709;43.614;1.576;2023-11-21T00:59:40;17.52;;;3.08;;
67904;SDS011;54709;43.614;1.576;2023-11-21T01:02:05;14.75;;;3.20;;
67904;SDS011;54709;43.614;1.576;2023-11-21T01:04:30;21.15;;;3.75;;
67904;SDS011;54709;43.614;1.576;2023-11-21T01:06:57;14.48;;;3.35;;
67904;SDS011;54709;43.614;1.576;2023-11-21T01:09:22;16.13;;;2.50;;
67904;SDS011;54709;43.614;1.576;2023-11-21T01:11:48;12.32;;;2.72;;
67904;SDS011;54709;43.614;1.576;2023-11-21T01:14:14;13.82;;;2.80;;
67904;SDS011;54709;43.614;1.576;2023-11-21T01:16:39;14.52;;;3.20;;
67904;SDS011;54709;43.614;1.576;2023-11-21T01:19:05;15.82;;;3.33;;
67904;SDS011;54709;43.614;1.576;2023-11-21T01:21:30;12.95;;;2.60;;
67904;SDS011;54709;43.614;1.576;2023-11-21T01:23:56;14.25;;;3.25;;
67904;SDS011;54709;43.614;1.576;2023-11-21T01:26:21;12.90;;;2.50;;
67904;SDS011;54709;43.614;1.576;2023-11-21T01:28:47;14.65;;;3.50;;
67904;SDS011;54709;43.614;1.576;2023-11-21T01:31:14;10.00;;;2.92;;
67904;SDS011;54709;43.614;1.576;2023-11-21T01:33:40;15.88;;;3.08;;
67904;SDS011;54709;43.614;1.576;2023-11-21T01:36:05;10.18;;;2.35;;
67904;SDS011;54709;43.614;1.576;2023-11-21T01:38:31;8.98;;;2.13;;
67904;SDS011;54709;43.614;1.576;2023-11-21T01:40:57;18.30;;;2.88;;
67904;SDS011;54709;43.614;1.576;2023-11-21T01:43:22;12.65;;;1.95;;
67904;SDS011;54709;43.614;1.576;2023-11-21T01:45:48;16.45;;;2.47;;
67904;SDS011;54709;43.614;1.576;2023-11-21T01:48:13;14.25;;;2.08;;
67904;SDS011;54709;43.614;1.576;2023-11-21T01:50:39;10.13;;;2.45;;
67904;SDS011;54709;43.614;1.576;2023-11-21T01:53:05;11.55;;;2.20;;
67904;SDS011;54709;43.614;1.576;2023-11-21T01:55:31;8.48;;;1.70;;
67904;SDS011;54709;43.614;1.576;2023-11-21T01:57:58;12.13;;;1.95;;
67904;SDS011;54709;43.614;1.576;2023-11-21T02:00:24;9.32;;;1.92;;
67904;SDS011;54709;43.614;1.576;2023-11-21T02:02:50;11.82;;;2.00;;
67904;SDS011;54709;43.614;1.576;2023-11-21T02:05:16;9.80;;;1.88;;
67904;SDS011;54709;43.614;1.576;2023-11-21T02:07:47;11.80;;;1.88;;
67904;SDS011;54709;43.614;1.576;2023-11-21T02:10:17;11.73;;;2.22;;
67904;SDS011;54709;43.614;1.576;2023-11-21T02:12:47;11.27;;;1.65;;
67904;SDS011;54709;43.614;1.576;2023-11-21T02:15:15;10.13;;;1.77;;
67904;SDS011;54709;43.614;1.576;2023-11-21T02:17:45;9.70;;;1.88;;
67904;SDS011;54709;43.614;1.576;2023-11-21T02:20:16;12.90;;;1.73;;
67904;SDS011;54709;43.614;1.576;2023-11-21T02:22:43;9.85;;;1.48;;
67904;SDS011;54709;43.614;1.576;2023-11-21T02:25:09;8.82;;;1.75;;
67904;SDS011;54709;43.614;1.576;2023-11-21T02:27:34;5.75;;;1.10;;
67904;SDS011;54709;43.614;1.576;2023-11-21T02:30:00;13.48;;;1.77;;
67904;SDS011;54709;43.614;1.576;2023-11-21T02:32:26;7.25;;;1.50;;
67904;SDS011;54709;43.614;1.576;2023-11-21T02:34:51;8.63;;;1.92;;
67904;SDS011;54709;43.614;1.576;2023-11-21T02:37:17;9.65;;;1.73;;
67904;SDS011;54709;43.614;1.576;2023-11-21T02:39:42;8.95;;;1.70;;
67904;SDS011;54709;43.614;1.576;2023-11-21T02:42:08;7.82;;;1.70;;
67904;SDS011;54709;43.614;1.576;2023-11-21T02:44:33;5.03;;;1.38;;
67904;SDS011;54709;43.614;1.576;2023-11-21T02:46:59;8.10;;;1.77;;
67904;SDS011;54709;43.614;1.576;2023-11-21T02:49:25;8.25;;;1.48;;
67904;SDS011;54709;43.614;1.576;2023-11-21T02:51:53;7.25;;;1.60;;
67904;SDS011;54709;43.614;1.576;2023-11-21T02:54:19;7.68;;;1.30;;
67904;SDS011;54709;43.614;1.576;2023-11-21T02:56:47;7.32;;;1.27;;
67904;SDS011;54709;43.614;1.576;2023-11-21T02:59:12;7.95;;;1.38;;
67904;SDS011;54709;43.614;1.576;2023-11-21T03:01:38;7.45;;;1.40;;
67904;SDS011;54709;43.614;1.576;2023-11-21T03:04:03;7.55;;;1.70;;
67904;SDS011;54709;43.614;1.576;2023-11-21T03:06:28;10.13;;;1.52;;
67904;SDS011;54709;43.614;1.576;2023-11-21T03:08:54;13.45;;;1.90;;
67904;SDS011;54709;43.614;1.576;2023-11-21T03:11:19;8.55;;;1.70;;
67904;SDS011;54709;43.614;1.576;2023-11-21T03:13:45;6.70;;;1.50;;
67904;SDS011;54709;43.614;1.576;2023-11-21T03:16:10;8.68;;;1.40;;
67904;SDS011;54709;43.614;1.576;2023-11-21T03:18:36;6.93;;;1.33;;
67904;SDS011;54709;43.614;1.576;2023-11-21T03:21:03;9.52;;;1.30;;
67904;SDS011;54709;43.614;1.576;2023-11-21T03:23:29;8.10;;;1.38;;
67904;SDS011;54709;43.614;1.576;2023-11-21T03:25:54;5.95;;;1.40;;
67904;SDS011;54709;43.614;1.576;2023-11-21T03:28:20;5.50;;;1.25;;
67904;SDS011;54709;43.614;1.576;2023-11-21T03:30:45;11.52;;;1.85;;
67904;SDS011;54709;43.614;1.576;2023-11-21T03:33:10;5.70;;;1.20;;
67904;SDS011;54709;43.614;1.576;2023-11-21T03:35:37;10.35;;;1.48;;
67904;SDS011;54709;43.614;1.576;2023-11-21T03:38:02;7.93;;;1.48;;
67904;SDS011;54709;43.614;1.576;2023-11-21T03:40:28;5.28;;;1.38;;
67904;SDS011;54709;43.614;1.576;2023-11-21T03:42:53;7.07;;;1.45;;
67904;SDS011;54709;43.614;1.576;2023-11-21T03:45:18;7.97;;;1.60;;
67904;SDS011;54709;43.614;1.576;2023-11-21T03:47:44;8.65;;;1.52;;
67904;SDS011;54709;43.614;1.576;2023-11-21T03:50:09;7.05;;;1.45;;
67904;SDS011;54709;43.614;1.576;2023-11-21T03:52:35;10.05;;;1.50;;
67904;SDS011;54709;43.614;1.576;2023-11-21T03:55:01;9.50;;;1.50;;
67904;SDS011;54709;43.614;1.576;2023-11-21T03:57:27;6.22;;;1.30;;
67904;SDS011;54709;43.614;1.576;2023-11-21T03:59:55;5.70;;;1.30;;
67904;SDS011;54709;43.614;1.576;2023-11-21T04:02:20;7.40;;;1.33;;
67904;SDS011;54709;43.614;1.576;2023-11-21T04:04:46;7.22;;;1.63;;
67904;SDS011;54709;43.614;1.576;2023-11-21T04:07:12;6.13;;;1.38;;
67904;SDS011;54709;43.614;1.576;2023-11-21T04:09:38;6.45;;;1.35;;
67904;SDS011;54709;43.614;1.576;2023-11-21T04:12:04;12.30;;;1.35;;
67904;SDS011;54709;43.614;1.576;2023-11-21T04:14:30;6.53;;;1.58;;
67904;SDS011;54709;43.614;1.576;2023-11-21T04:16:55;7.40;;;1.40;;
67904;SDS011;54709;43.614;1.576;2023-11-21T04:19:20;9.75;;;1.77;;
67904;SDS011;54709;43.614;1.576;2023-11-21T04:21:46;8.73;;;1.90;;
67904;SDS011;54709;43.614;1.576;2023-11-21T04:24:11;9.73;;;1.60;;
67904;SDS011;54709;43.614;1.576;2023-11-21T04:26:37;5.75;;;1.40;;
67904;SDS011;54709;43.614;1.576;2023-11-21T04:29:02;6.80;;;1.42;;
67904;SDS011;54709;43.614;1.576;2023-11-21T04:31:29;7.10;;;1.35;;
67904;SDS011;54709;43.614;1.576;2023-11-21T04:33:54;9.45;;;1.90;;
67904;SDS011;54709;43.614;1.576;2023-11-21T04:36:20;6.55;;;1.75;;
67904;SDS011;54709;43.614;1.576;2023-11-21T04:38:45;7.93;;;1.40;;
67904;SDS011;54709;43.614;1.576;2023-11-21T04:41:10;8.23;;;1.55;;
67904;SDS011;54709;43.614;1.576;2023-11-21T04:43:36;6.53;;;1.10;;
67904;SDS011;54709;43.614;1.576;2023-11-21T04:46:02;7.45;;;1.38;;
67904;SDS011;54709;43.614;1.576;2023-11-21T04:48:27;10.35;;;1.67;;
67904;SDS011;54709;43.614;1.576;2023-11-21T04:50:53;8.10;;;1.52;;
67904;SDS011;54709;43.614;1.576;2023-11-21T04:53:18;5.65;;;1.40;;
67904;SDS011;54709;43.614;1.576;2023-11-21T04:55:44;6.30;;;1.30;;
67904;SDS011;54709;43.614;1.576;2023-11-21T04:58:09;9.82;;;1.60;;
67904;SDS011;54709;43.614;1.576;2023-11-21T05:00:35;11.38;;;1.58;;
67904;SDS011;54709;43.614;1.576;2023-11-21T05:03:01;9.00;;;1.40;;
67904;SDS011;54709;43.614;1.576;2023-11-21T05:05:27;7.88;;;1.70;;
67904;SDS011;54709;43.614;1.576;2023-11-21T05:07:52;6.68;;;1.50;;
67904;SDS011;54709;43.614;1.576;2023-11-21T05:10:18;7.43;;;1.40;;
67904;SDS011;54709;43.614;1.576;2023-11-21T05:12:44;7.20;;;1.50;;
67904;SDS011;54709;43.614;1.576;2023-11-21T05:15:12;8.77;;;1.83;;
67904;SDS011;54709;43.614;1.576;2023-11-21T05:17:39;9.35;;;1.45;;
67904;SDS011;54709;43.614;1.576;2023-11-21T05:20:12;8.57;;;1.45;;
67904;SDS011;54709;43.614;1.576;2023-11-21T05:22:39;7.25;;;1.52;;
67904;SDS011;54709;43.614;1.576;2023-11-21T05:25:05;8.85;;;1.33;;
67904;SDS011;54709;43.614;1.576;2023-11-21T05:27:32;6.00;;;1.33;;
67904;SDS011;54709;43.614;1.576;2023-11-21T05:29:58;7.65;;;1.52;;
67904;SDS011;54709;43.614;1.576;2023-11-21T05:32:24;10.95;;;1.95;;
67904;SDS011;54709;43.614;1.576;2023-11-21T05:34:49;9.77;;;1.63;;
67904;SDS011;54709;43.614;1.576;2023-11-21T05:37:15;8.68;;;1.80;;
67904;SDS011;54709;43.614;1.576;2023-11-21T05:39:40;7.53;;;1.25;;
67904;SDS011;54709;43.614;1.576;2023-11-21T05:42:05;7.90;;;1.60;;
67904;SDS011;54709;43.614;1.576;2023-11-21T05:44:31;5.40;;;1.40;;
67904;SDS011;54709;43.614;1.576;2023-11-21T05:46:56;10.93;;;1.67;;
67904;SDS011;54709;43.614;1.576;2023-11-21T05:49:23;10.35;;;1.90;;
67904;SDS011;54709;43.614;1.576;2023-11-21T05:51:51;8.82;;;1.70;;
67904;SDS011;54709;43.614;1.576;2023-11-21T05:54:19;12.13;;;1.65;;
67904;SDS011;54709;43.614;1.576;2023-11-21T05:56:44;9.75;;;1.70;;
67904;SDS011;54709;43.614;1.576;2023-11-21T05:59:09;5.82;;;1.70;;
67904;SDS011;54709;43.614;1.576;2023-11-21T06:01:35;8.07;;;1.40;;
67904;SDS011;54709;43.614;1.576;2023-11-21T06:04:03;7.70;;;1.25;;
67904;SDS011;54709;43.614;1.576;2023-11-21T06:06:29;5.28;;;1.35;;
67904;SDS011;54709;43.614;1.576;2023-11-21T06:08:56;8.15;;;1.60;;
67904;SDS011;54709;43.614;1.576;2023-11-21T06:11:21;7.70;;;1.67;;
67904;SDS011;54709;43.614;1.576;2023-11-21T06:13:46;10.77;;;1.83;;
67904;SDS011;54709;43.614;1.576;2023-11-21T06:16:13;6.78;;;1.20;;
67904;SDS011;54709;43.614;1.576;2023-11-21T06:18:41;9.98;;;1.58;;
67904;SDS011;54709;43.614;1.576;2023-11-21T06:21:09;9.00;;;1.20;;
67904;SDS011;54709;43.614;1.576;2023-11-21T06:23:34;8.25;;;1.70;;
67904;SDS011;54709;43.614;1.576;2023-11-21T06:26:00;10.00;;;1.35;;
67904;SDS011;54709;43.614;1.576;2023-11-21T06:28:25;8.25;;;1.20;;
67904;SDS011;54709;43.614;1.576;2023-11-21T06:30:50;9.02;;;1.50;;
67904;SDS011;54709;43.614;1.576;2023-11-21T06:33:16;7.50;;;1.38;;
67904;SDS011;54709;43.614;1.576;2023-11-21T06:35:41;5.63;;;1.15;;
67904;SDS011;54709;43.614;1.576;2023-11-21T06:38:06;10.52;;;1.60;;
67904;SDS011;54709;43.614;1.576;2023-11-21T06:40:34;7.38;;;0.95;;
67904;SDS011;54709;43.614;1.576;2023-11-21T06:42:59;5.85;;;1.05;;
67904;SDS011;54709;43.614;1.576;2023-11-21T06:45:25;7.75;;;0.98;;
67904;SDS011;54709;43.614;1.576;2023-11-21T06:47:51;6.38;;;1.30;;
67904;SDS011;54709;43.614;1.576;2023-11-21T06:50:16;5.82;;;1.08;;
67904;SDS011;54709;43.614;1.576;2023-11-21T06:52:42;5.10;;;1.33;;
67904;SDS011;54709;43.614;1.576;2023-11-21T06:55:08;3.40;;;1.05;;
67904;SDS011;54709;43.614;1.576;2023-11-21T06:57:34;7.38;;;1.60;;
67904;SDS011;54709;43.614;1.576;2023-11-21T06:59:59;4.25;;;1.10;;
67904;SDS011;54709;43.614;1.576;2023-11-21T07:02:25;6.47;;;1.33;;
67904;SDS011;54709;43.614;1.576;2023-11-21T07:04:50;5.22;;;1.30;;
67904;SDS011;54709;43.614;1.576;2023-11-21T07:07:15;6.22;;;1.45;;
67904;SDS011;54709;43.614;1.576;2023-11-21T07:09:41;6.78;;;2.15;;
67904;SDS011;54709;43.614;1.576;2023-11-21T07:12:07;5.30;;;1.55;;
67904;SDS011;54709;43.614;1.576;2023-11-21T07:14:33;9.20;;;1.98;;
67904;SDS011;54709;43.614;1.576;2023-11-21T07:16:59;9.27;;;1.50;;
67904;SDS011;54709;43.614;1.576;2023-11-21T07:19:24;4.88;;;1.70;;
67904;SDS011;54709;43.614;1.576;2023-11-21T07:21:50;5.32;;;1.70;;
67904;SDS011;54709;43.614;1.576;2023-11-21T07:24:18;5.38;;;1.33;;
67904;SDS011;54709;43.614;1.576;2023-11-21T07:26:43;7.82;;;1.75;;
67904;SDS011;54709;43.614;1.576;2023-11-21T07:29:09;5.97;;;1.80;;
67904;SDS011;54709;43.614;1.576;2023-11-21T07:31:34;6.53;;;1.63;;
67904;SDS011;54709;43.614;1.576;2023-11-21T07:34:00;7.63;;;1.40;;
67904;SDS011;54709;43.614;1.576;2023-11-21T07:36:25;3.92;;;1.38;;
67904;SDS011;54709;43.614;1.576;2023-11-21T07:38:51;6.43;;;1.67;;
67904;SDS011;54709;43.614;1.576;2023-11-21T07:41:17;5.10;;;1.35;;
67904;SDS011;54709;43.614;1.576;2023-11-21T07:43:43;6.47;;;1.60;;
67904;SDS011;54709;43.614;1.576;2023-11-21T07:46:09;4.65;;;1.45;;
67904;SDS011;54709;43.614;1.576;2023-11-21T07:48:35;5.47;;;1.85;;
67904;SDS011;54709;43.614;1.576;2023-11-21T07:51:01;4.47;;;1.73;;
67904;SDS011;54709;43.614;1.576;2023-11-21T07:53:28;4.80;;;1.30;;
67904;SDS011;54709;43.614;1.576;2023-11-21T07:55:58;4.80;;;1.50;;
67904;SDS011;54709;43.614;1.576;2023-11-21T07:58:24;3.88;;;1.58;;
67904;SDS011;54709;43.614;1.576;2023-11-21T08:00:49;7.20;;;1.55;;
67904;SDS011;54709;43.614;1.576;2023-11-21T08:03:15;8.13;;;1.30;;
67904;SDS011;54709;43.614;1.576;2023-11-21T08:05:41;3.78;;;1.60;;
67904;SDS011;54709;43.614;1.576;2023-11-21T08:08:07;3.95;;;1.50;;
67904;SDS011;54709;43.614;1.576;2023-11-21T08:10:32;4.95;;;1.20;;
67904;SDS011;54709;43.614;1.576;2023-11-21T08:12:58;3.30;;;1.40;;
67904;SDS011;54709;43.614;1.576;2023-11-21T08:15:23;4.38;;;1.08;;
67904;SDS011;54709;43.614;1.576;2023-11-21T08:17:49;4.28;;;1.25;;
67904;SDS011;54709;43.614;1.576;2023-11-21T08:20:14;3.53;;;1.20;;
67904;SDS011;54709;43.614;1.576;2023-11-21T08:22:41;3.08;;;1.25;;
67904;SDS011;54709;43.614;1.576;2023-11-21T08:25:09;4.45;;;1.35;;
67904;SDS011;54709;43.614;1.576;2023-11-21T08:27:34;4.00;;;1.30;;
67904;SDS011;54709;43.614;1.576;2023-11-21T08:30:00;7.70;;;1.42;;
67904;SDS011;54709;43.614;1.576;2023-11-21T08:32:27;4.68;;;1.35;;
67904;SDS011;54709;43.614;1.576;2023-11-21T08:34:53;2.55;;;1.30;;
67904;SDS011;54709;43.614;1.576;2023-11-21T08:37:18;3.28;;;1.20;;
67904;SDS011;54709;43.614;1.576;2023-11-21T08:39:44;2.50;;;1.10;;
67904;SDS011;54709;43.614;1.576;2023-11-21T08:42:09;2.42;;;1.10;;
67904;SDS011;54709;43.614;1.576;2023-11-21T08:44:35;3.67;;;1.27;;
67904;SDS011;54709;43.614;1.576;2023-11-21T08:47:00;3.58;;;1.30;;
67904;SDS011;54709;43.614;1.576;2023-11-21T08:49:25;4.45;;;1.30;;
67904;SDS011;54709;43.614;1.576;2023-11-21T08:51:52;2.90;;;1.25;;
67904;SDS011;54709;43.614;1.576;2023-11-21T08:54:20;2.03;;;0.90;;
67904;SDS011;54709;43.614;1.576;2023-11-21T08:56:46;2.63;;;1.00;;
67904;SDS011;54709;43.614;1.576;2023-11-21T08:59:11;1.40;;;0.82;;
67904;SDS011;54709;43.614;1.576;2023-11-21T09:01:39;1.83;;;0.93;;
67904;SDS011;54709;43.614;1.576;2023-11-21T09:04:05;2.80;;;1.35;;
67904;SDS011;54709;43.614;1.576;2023-11-21T09:06:31;3.42;;;1.20;;
67904;SDS011;54709;43.614;1.576;2023-11-21T09:08:56;3.58;;;1.40;;
67904;SDS011;54709;43.614;1.576;2023-11-21T09:11:21;5.10;;;1.30;;
67904;SDS011;54709;43.614;1.576;2023-11-21T09:13:47;2.22;;;1.05;;
67904;SDS011;54709;43.614;1.576;2023-11-21T09:16:13;3.05;;;1.20;;
67904;SDS011;54709;43.614;1.576;2023-11-21T09:18:40;6.30;;;1.30;;
67904;SDS011;54709;43.614;1.576;2023-11-21T09:21:05;2.90;;;1.30;;
67904;SDS011;54709;43.614;1.576;2023-11-21T09:23:31;3.30;;;1.30;;
67904;SDS011;54709;43.614;1.576;2023-11-21T09:25:56;2.17;;;1.38;;
67904;SDS011;54709;43.614;1.576;2023-11-21T09:28:22;4.15;;;1.45;;
67904;SDS011;54709;43.614;1.576;2023-11-21T09:30:47;2.40;;;1.15;;
67904;SDS011;54709;43.614;1.576;2023-11-21T09:33:15;3.95;;;1.30;;
67904;SDS011;54709;43.614;1.576;2023-11-21T09:35:40;3.53;;;1.30;;
67904;SDS011;54709;43.614;1.576;2023-11-21T09:38:05;3.22;;;1.08;;
67904;SDS011;54709;43.614;1.576;2023-11-21T09:40:35;4.05;;;1.30;;
67904;SDS011;54709;43.614;1.576;2023-11-21T09:43:02;2.92;;;1.35;;
67904;SDS011;54709;43.614;1.576;2023-11-21T09:45:34;4.20;;;1.63;;
67904;SDS011;54709;43.614;1.576;2023-11-21T09:48:01;10.88;;;5.68;;
67904;SDS011;54709;43.614;1.576;2023-11-21T09:50:26;5.68;;;1.95;;
67904;SDS011;54709;43.614;1.576;2023-11-21T09:55:46;3.08;;;1.30;;
67904;SDS011;54709;43.614;1.576;2023-11-21T09:58:13;4.10;;;1.88;;
67904;SDS011;54709;43.614;1.576;2023-11-21T10:00:43;4.68;;;1.52;;
67904;SDS011;54709;43.614;1.576;2023-11-21T10:03:10;2.60;;;1.27;;
67904;SDS011;54709;43.614;1.576;2023-11-21T10:05:36;4.15;;;1.90;;
67904;SDS011;54709;43.614;1.576;2023-11-21T10:08:12;5.22;;;1.40;;
67904;SDS011;54709;43.614;1.576;2023-11-21T10:10:38;4.18;;;1.77;;
67904;SDS011;54709;43.614;1.576;2023-11-21T10:13:11;7.07;;;4.00;;
67904;SDS011;54709;43.614;1.576;2023-11-21T10:15:37;5.13;;;2.58;;
67904;SDS011;54709;43.614;1.576;2023-11-21T10:18:03;4.88;;;1.90;;
67904;SDS011;54709;43.614;1.576;2023-11-21T10:20:30;4.47;;;1.80;;
67904;SDS011;54709;43.614;1.576;2023-11-21T10:22:56;5.72;;;2.83;;
67904;SDS011;54709;43.614;1.576;2023-11-21T10:25:22;5.03;;;1.52;;
67904;SDS011;54709;43.614;1.576;2023-11-21T10:27:48;7.13;;;1.88;;
67904;SDS011;54709;43.614;1.576;2023-11-21T10:30:16;5.38;;;1.45;;
67904;SDS011;54709;43.614;1.576;2023-11-21T10:32:43;6.15;;;3.10;;
67904;SDS011;54709;43.614;1.576;2023-11-21T10:35:09;3.03;;;1.30;;
67904;SDS011;54709;43.614;1.576;2023-11-21T10:37:40;5.20;;;2.10;;
67904;SDS011;54709;43.614;1.576;2023-11-21T10:40:09;4.30;;;1.33;;
67904;SDS011;54709;43.614;1.576;2023-11-21T10:42:38;6.43;;;2.63;;
67904;SDS011;54709;43.614;1.576;2023-11-21T10:45:07;4.70;;;2.60;;
67904;SDS011;54709;43.614;1.576;2023-11-21T10:47:43;7.63;;;3.67;;
67904;SDS011;54709;43.614;1.576;2023-11-21T10:50:09;6.15;;;2.70;;
67904;SDS011;54709;43.614;1.576;2023-11-21T10:52:42;6.78;;;5.38;;
67904;SDS011;54709;43.614;1.576;2023-11-21T10:55:17;3.83;;;2.03;;
67904;SDS011;54709;43.614;1.576;2023-11-21T10:57:51;2.25;;;1.35;;
67904;SDS011;54709;43.614;1.576;2023-11-21T11:00:18;4.10;;;1.30;;
67904;SDS011;54709;43.614;1.576;2023-11-21T11:02:47;3.72;;;2.25;;
67904;SDS011;54709;43.614;1.576;2023-11-21T11:05:15;3.00;;;1.70;;
67904;SDS011;54709;43.614;1.576;2023-11-21T11:07:43;4.13;;;2.30;;
67904;SDS011;54709;43.614;1.576;2023-11-21T11:10:09;5.47;;;1.67;;
67904;SDS011;54709;43.614;1.576;2023-11-21T11:12:39;4.22;;;1.77;;
67904;SDS011;54709;43.614;1.576;2023-11-21T11:15:08;3.33;;;1.80;;
67904;SDS011;54709;43.614;1.576;2023-11-21T11:17:37;2.72;;;1.52;;
67904;SDS011;54709;43.614;1.576;2023-11-21T11:20:07;6.20;;;1.90;;
67904;SDS011;54709;43.614;1.576;2023-11-21T11:38:25;2.60;;;1.38;;
67904;SDS011;54709;43.614;1.576;2023-11-21T11:40:53;4.45;;;1.20;;
67904;SDS011;54709;43.614;1.576;2023-11-21T11:43:25;2.10;;;1.50;;
67904;SDS011;54709;43.614;1.576;2023-11-21T11:45:51;1.60;;;1.27;;
67904;SDS011;54709;43.614;1.576;2023-11-21T11:48:19;2.15;;;1.13;;
67904;SDS011;54709;43.614;1.576;2023-11-21T11:51:03;2.00;;;1.27;;
67904;SDS011;54709;43.614;1.576;2023-11-21T11:53:35;4.78;;;1.50;;
67904;SDS011;54709;43.614;1.576;2023-11-21T11:58:55;5.30;;;2.85;;
67904;SDS011;54709;43.614;1.576;2023-11-21T12:01:22;4.82;;;2.58;;
67904;SDS011;54709;43.614;1.576;2023-11-21T12:06:40;1.92;;;1.30;;
67904;SDS011;54709;43.614;1.576;2023-11-21T12:09:06;1.95;;;1.27;;
67904;SDS011;54709;43.614;1.576;2023-11-21T12:11:32;2.13;;;1.42;;
67904;SDS011;54709;43.614;1.576;2023-11-21T12:14:01;1.25;;;1.13;;
67904;SDS011;54709;43.614;1.576;2023-11-21T12:16:27;3.17;;;1.30;;
67904;SDS011;54709;43.614;1.576;2023-11-21T12:18:53;1.27;;;1.05;;
67904;SDS011;54709;43.614;1.576;2023-11-21T12:21:19;1.65;;;1.08;;
67904;SDS011;54709;43.614;1.576;2023-11-21T12:23:47;2.42;;;1.20;;
67904;SDS011;54709;43.614;1.576;2023-11-21T12:26:13;2.53;;;1.50;;
67904;SDS011;54709;43.614;1.576;2023-11-21T12:28:39;4.53;;;1.30;;
67904;SDS011;54709;43.614;1.576;2023-11-21T12:31:04;3.63;;;1.52;;
67904;SDS011;54709;43.614;1.576;2023-11-21T12:33:32;2.83;;;1.20;;
67904;SDS011;54709;43.614;1.576;2023-11-21T12:35:58;1.90;;;1.20;;
67904;SDS011;54709;43.614;1.576;2023-11-21T12:38:23;3.83;;;2.67;;
67904;SDS011;54709;43.614;1.576;2023-11-21T12:40:49;5.50;;;4.35;;
67904;SDS011;54709;43.614;1.576;2023-11-21T12:43:15;2.28;;;1.70;;
67904;SDS011;54709;43.614;1.576;2023-11-21T12:45:43;2.90;;;2.35;;
67904;SDS011;54709;43.614;1.576;2023-11-21T12:48:09;1.60;;;1.50;;
67904;SDS011;54709;43.614;1.576;2023-11-21T12:50:36;3.30;;;2.70;;
67904;SDS011;54709;43.614;1.576;2023-11-21T12:53:06;2.33;;;1.50;;
67904;SDS011;54709;43.614;1.576;2023-11-21T12:55:34;2.92;;;2.38;;
67904;SDS011;54709;43.614;1.576;2023-11-21T12:58:02;2.97;;;2.08;;
67904;SDS011;54709;43.614;1.576;2023-11-21T13:00:36;1.52;;;1.35;;
67904;SDS011;54709;43.614;1.576;2023-11-21T13:03:07;3.05;;;1.70;;
67904;SDS011;54709;43.614;1.576;2023-11-21T13:05:34;2.05;;;1.50;;
67904;SDS011;54709;43.614;1.576;2023-11-21T13:08:15;2.05;;;1.70;;
67904;SDS011;54709;43.614;1.576;2023-11-21T13:10:45;2.60;;;2.20;;
67904;SDS011;54709;43.614;1.576;2023-11-21T13:13:12;2.75;;;2.30;;
67904;SDS011;54709;43.614;1.576;2023-11-21T13:15:48;3.60;;;2.50;;
67904;SDS011;54709;43.614;1.576;2023-11-21T13:18:15;2.85;;;1.50;;
67904;SDS011;54709;43.614;1.576;2023-11-21T13:20:41;3.40;;;1.35;;
67904;SDS011;54709;43.614;1.576;2023-11-21T13:23:08;1.98;;;1.30;;
67904;SDS011;54709;43.614;1.576;2023-11-21T13:25:36;1.80;;;1.33;;
67904;SDS011;54709;43.614;1.576;2023-11-21T13:28:08;1.25;;;1.15;;
67904;SDS011;54709;43.614;1.576;2023-11-21T13:30:34;5.65;;;1.52;;
67904;SDS011;54709;43.614;1.576;2023-11-21T13:33:01;2.03;;;1.70;;
67904;SDS011;54709;43.614;1.576;2023-11-21T13:35:27;4.70;;;3.17;;
67904;SDS011;54709;43.614;1.576;2023-11-21T13:38:04;2.58;;;1.90;;
67904;SDS011;54709;43.614;1.576;2023-11-21T13:40:31;1.75;;;1.45;;
67904;SDS011;54709;43.614;1.576;2023-11-21T13:42:56;2.10;;;1.10;;
67904;SDS011;54709;43.614;1.576;2023-11-21T13:45:25;3.00;;;1.80;;
67904;SDS011;54709;43.614;1.576;2023-11-21T13:47:52;7.10;;;5.68;;
67904;SDS011;54709;43.614;1.576;2023-11-21T13:50:22;4.30;;;2.47;;
67904;SDS011;54709;43.614;1.576;2023-11-21T13:52:54;4.88;;;2.85;;
67904;SDS011;54709;43.614;1.576;2023-11-21T13:55:20;5.65;;;2.67;;
67904;SDS011;54709;43.614;1.576;2023-11-21T13:57:49;4.75;;;3.25;;
67904;SDS011;54709;43.614;1.576;2023-11-21T14:00:17;2.35;;;1.52;;
67904;SDS011;54709;43.614;1.576;2023-11-21T14:03:09;3.33;;;1.55;;
67904;SDS011;54709;43.614;1.576;2023-11-21T14:05:42;3.75;;;1.80;;
67904;SDS011;54709;43.614;1.576;2023-11-21T14:08:09;2.83;;;1.75;;
67904;SDS011;54709;43.614;1.576;2023-11-21T14:10:37;2.63;;;1.85;;
67904;SDS011;54709;43.614;1.576;2023-11-21T14:13:07;4.18;;;2.90;;
67904;SDS011;54709;43.614;1.576;2023-11-21T14:15:35;7.25;;;4.60;;
67904;SDS011;54709;43.614;1.576;2023-11-21T14:18:06;6.38;;;3.78;;
67904;SDS011;54709;43.614;1.576;2023-11-21T14:20:32;8.38;;;4.47;;
67904;SDS011;54709;43.614;1.576;2023-11-21T14:22:58;9.45;;;5.38;;
67904;SDS011;54709;43.614;1.576;2023-11-21T14:25:23;8.70;;;5.10;;
67904;SDS011;54709;43.614;1.576;2023-11-21T14:27:49;6.10;;;2.67;;
67904;SDS011;54709;43.614;1.576;2023-11-21T14:30:15;4.03;;;2.40;;
67904;SDS011;54709;43.614;1.576;2023-11-21T14:32:44;3.65;;;1.90;;
67904;SDS011;54709;43.614;1.576;2023-11-21T14:35:09;3.85;;;2.08;;
67904;SDS011;54709;43.614;1.576;2023-11-21T14:37:35;4.32;;;2.40;;
67904;SDS011;54709;43.614;1.576;2023-11-21T14:40:00;4.38;;;2.35;;
67904;SDS011;54709;43.614;1.576;2023-11-21T14:42:25;6.00;;;2.47;;
67904;SDS011;54709;43.614;1.576;2023-11-21T14:44:54;4.95;;;2.60;;
67904;SDS011;54709;43.614;1.576;2023-11-21T14:47:25;9.37;;;2.90;;
67904;SDS011;54709;43.614;1.576;2023-11-21T14:49:52;4.55;;;2.00;;
67904;SDS011;54709;43.614;1.576;2023-11-21T14:52:21;5.35;;;2.05;;
67904;SDS011;54709;43.614;1.576;2023-11-21T14:54:59;4.03;;;2.03;;
67904;SDS011;54709;43.614;1.576;2023-11-21T14:57:44;5.95;;;2.00;;
67904;SDS011;54709;43.614;1.576;2023-11-21T15:00:14;6.57;;;2.20;;
67904;SDS011;54709;43.614;1.576;2023-11-21T15:02:58;3.60;;;2.20;;
67904;SDS011;54709;43.614;1.576;2023-11-21T15:05:23;6.35;;;3.33;;
67904;SDS011;54709;43.614;1.576;2023-11-21T15:07:50;6.13;;;2.97;;